Time,TemperatureF,DewpointF,PressureIn,WindDirection,WindDirectionDegrees,WindSpeedMPH,WindSpeedGustMPH,Humidity,HourlyPrecipIn,Conditions,Clouds,dailyrainin,SoftwareType,DateUTC
2013-09-23 00:10:00,68.2,64.0,29.84,WSW,254,0.0,3.0,87,0.00,,,1.07,weatherlink.com 1.10,2013-09-23 04:10:00,
2013-09-23 00:25:00,68.2,64.0,29.84,NW,321,0.0,3.0,86,0.00,,,0.00,weatherlink.com 1.10,2013-09-23 04:25:00,
2013-09-23 00:40:00,68.0,63.0,29.84,West,270,1.0,2.0,84,0.00,,,0.00,weatherlink.com 1.10,2013-09-23 04:40:00,
2013-09-23 00:55:00,67.8,63.0,29.85,WNW,289,0.0,2.0,83,0.00,,,0.00,weatherlink.com 1.10,2013-09-23 04:55:00,
2013-09-23 01:11:00,67.8,63.0,29.86,NW,316,0.0,1.0,83,0.00,,,0.00,weatherlink.com 1.10,2013-09-23 05:11:00,
2013-09-23 01:26:00,67.7,63.0,29.86,WNW,293,0.0,3.0,84,0.00,,,0.00,weatherlink.com 1.10,2013-09-23 05:26:00,
2013-09-23 01:41:00,67.2,62.0,29.86,NNW,339,0.0,4.0,84,0.00,,,0.00,weatherlink.com 1.10,2013-09-23 05:41:00,
2013-09-23 01:56:00,66.9,62.0,29.86,North,355,0.0,2.0,84,0.00,,,0.00,weatherlink.com 1.10,2013-09-23 05:56:00,
2013-09-23 02:11:00,66.7,61.0,29.87,NW,304,1.0,2.0,83,0.00,,,0.00,weatherlink.com 1.10,2013-09-23 06:11:00,
2013-09-23 02:26:00,66.6,61.0,29.86,WNW,290,0.0,2.0,83,0.00,,,0.00,weatherlink.com 1.10,2013-09-23 06:26:00,
2013-09-23 02:41:00,66.4,62.0,29.86,NW,316,0.0,3.0,84,0.00,,,0.00,weatherlink.com 1.10,2013-09-23 06:41:00,
2013-09-23 02:56:00,66.2,61.0,29.86,NW,319,0.0,3.0,84,0.00,,,0.00,weatherlink.com 1.10,2013-09-23 06:56:00,
2013-09-23 03:11:00,65.9,61.0,29.87,WNW,297,0.0,1.0,85,0.00,,,0.00,weatherlink.com 1.10,2013-09-23 07:11:00,
2013-09-23 03:26:00,65.5,61.0,29.87,WNW,298,0.0,1.0,86,0.00,,,0.00,weatherlink.com 1.10,2013-09-23 07:26:00,
2013-09-23 03:41:00,65.0,61.0,29.87,WNW,293,0.0,1.0,86,0.00,,,0.00,weatherlink.com 1.10,2013-09-23 07:41:00,
2013-09-23 03:56:00,64.8,61.0,29.87,WNW,297,0.0,1.0,87,0.00,,,0.00,weatherlink.com 1.10,2013-09-23 07:56:00,
2013-09-23 04:11:00,64.5,61.0,29.88,WNW,295,0.0,2.0,87,0.00,,,0.00,weatherlink.com 1.10,2013-09-23 08:11:00,
2013-09-23 04:26:00,64.0,60.0,29.88,West,270,0.0,1.0,88,0.00,,,0.00,weatherlink.com 1.10,2013-09-23 08:26:00,
2013-09-23 04:41:00,63.3,60.0,29.89,WNW,298,0.0,1.0,89,0.00,,,0.00,weatherlink.com 1.10,2013-09-23 08:41:00,
2013-09-23 04:56:00,62.9,60.0,29.89,WNW,295,0.0,2.0,90,0.00,,,0.00,weatherlink.com 1.10,2013-09-23 08:56:00,
2013-09-23 05:11:00,62.6,60.0,29.89,WNW,297,1.0,1.0,91,0.00,,,0.00,weatherlink.com 1.10,2013-09-23 09:11:00,
2013-09-23 05:26:00,62.2,60.0,29.90,WNW,297,0.0,1.0,92,0.00,,,0.00,weatherlink.com 1.10,2013-09-23 09:26:00,
2013-09-23 05:41:00,61.8,60.0,29.91,WNW,297,0.0,0.0,92,0.00,,,0.00,weatherlink.com 1.10,2013-09-23 09:41:00,
2013-09-23 05:56:00,61.4,59.0,29.91,WNW,302,0.0,3.0,93,0.00,,,0.00,weatherlink.com 1.10,2013-09-23 09:56:00,
2013-09-23 06:11:00,61.1,59.0,29.91,NW,311,0.0,2.0,93,0.00,,,0.00,weatherlink.com 1.10,2013-09-23 10:11:00,
2013-09-23 06:26:00,60.7,59.0,29.93,NW,310,0.0,3.0,93,0.00,,,0.00,weatherlink.com 1.10,2013-09-23 10:26:00,
2013-09-23 06:41:00,60.3,58.0,29.93,NNW,327,0.0,1.0,93,0.00,,,0.00,weatherlink.com 1.10,2013-09-23 10:41:00,
2013-09-23 06:56:00,60.0,58.0,29.94,WNW,288,0.0,2.0,93,0.00,,,0.00,weatherlink.com 1.10,2013-09-23 10:56:00,
2013-09-23 07:11:00,59.9,58.0,29.95,NW,307,0.0,2.0,93,0.00,,,0.00,weatherlink.com 1.10,2013-09-23 11:11:00,
2013-09-23 07:26:00,60.7,59.0,29.96,WNW,297,0.0,1.0,93,0.00,,,0.00,weatherlink.com 1.10,2013-09-23 11:26:00,
2013-09-23 07:41:00,61.1,59.0,29.97,NW,305,1.0,2.0,91,0.00,,,0.00,weatherlink.com 1.10,2013-09-23 11:41:00,
2013-09-23 07:56:00,61.8,59.0,29.97,WNW,291,0.0,3.0,90,0.00,,,0.00,weatherlink.com 1.10,2013-09-23 11:56:00,
2013-09-23 08:11:00,62.6,59.0,29.98,NNW,329,0.0,4.0,88,0.00,,,0.00,weatherlink.com 1.10,2013-09-23 12:11:00,
2013-09-23 08:27:00,63.9,59.0,29.98,North,6,2.0,4.0,84,0.00,,,0.00,weatherlink.com 1.10,2013-09-23 12:27:00,
2013-09-23 08:42:00,64.7,59.0,29.99,WNW,298,0.0,3.0,81,0.00,,,0.00,weatherlink.com 1.10,2013-09-23 12:42:00,
2013-09-23 08:57:00,66.0,59.0,29.99,WNW,291,1.0,5.0,77,0.00,,,0.00,weatherlink.com 1.10,2013-09-23 12:57:00,
2013-09-23 09:12:00,66.9,59.0,29.99,NW,308,2.0,5.0,75,0.00,,,0.00,weatherlink.com 1.10,2013-09-23 13:12:00,
2013-09-23 09:27:00,67.7,58.0,30.00,NW,325,2.0,5.0,72,0.00,,,0.00,weatherlink.com 1.10,2013-09-23 13:27:00,
2013-09-23 09:42:00,68.7,58.0,30.00,WNW,291,0.0,5.0,69,0.00,,,0.00,weatherlink.com 1.10,2013-09-23 13:42:00,
2013-09-23 09:57:00,69.3,59.0,30.01,WNW,285,1.0,5.0,69,0.00,,,0.00,weatherlink.com 1.10,2013-09-23 13:57:00,
2013-09-23 10:12:00,69.7,59.0,30.01,NW,317,1.0,6.0,68,0.00,,,0.00,weatherlink.com 1.10,2013-09-23 14:12:00,
2013-09-23 10:27:00,70.6,59.0,30.01,West,274,1.0,4.0,67,0.00,,,0.00,weatherlink.com 1.10,2013-09-23 14:27:00,
2013-09-23 10:42:00,71.0,57.0,30.01,NE,49,0.0,6.0,62,0.00,,,0.00,weatherlink.com 1.10,2013-09-23 14:42:00,
2013-09-23 10:57:00,71.3,57.0,30.02,North,8,3.0,7.0,62,0.00,,,0.00,weatherlink.com 1.10,2013-09-23 14:57:00,
2013-09-23 11:12:00,71.6,57.0,30.02,WSW,258,0.0,5.0,61,0.00,,,0.00,weatherlink.com 1.10,2013-09-23 15:12:00,
2013-09-23 11:27:00,71.7,58.0,30.02,WSW,243,2.0,8.0,62,0.00,,,0.00,weatherlink.com 1.10,2013-09-23 15:27:00,
2013-09-23 11:42:00,72.2,58.0,30.02,ESE,113,2.0,5.0,61,0.00,,,0.00,weatherlink.com 1.10,2013-09-23 15:42:00,
2013-09-23 11:57:00,72.3,58.0,30.02,WNW,284,1.0,8.0,60,0.00,,,0.00,weatherlink.com 1.10,2013-09-23 15:57:00,
2013-09-23 12:12:00,72.1,56.0,30.02,NW,326,1.0,5.0,58,0.00,,,0.00,weatherlink.com 1.10,2013-09-23 16:12:00,
2013-09-23 12:27:00,71.8,57.0,30.03,SE,139,2.0,5.0,61,0.00,,,0.00,weatherlink.com 1.10,2013-09-23 16:27:00,
2013-09-23 12:42:00,72.4,58.0,30.02,SW,229,0.0,7.0,61,0.00,,,0.00,weatherlink.com 1.10,2013-09-23 16:42:00,
2013-09-23 12:57:00,71.9,56.0,30.02,WNW,287,8.0,8.0,58,0.00,,,0.00,weatherlink.com 1.10,2013-09-23 16:57:00,
2013-09-23 13:12:00,72.4,57.0,30.02,NW,326,3.0,7.0,59,0.00,,,0.00,weatherlink.com 1.10,2013-09-23 17:12:00,
2013-09-23 13:27:00,72.5,57.0,30.02,NW,317,0.0,5.0,59,0.00,,,0.00,weatherlink.com 1.10,2013-09-23 17:27:00,
2013-09-23 13:42:00,72.8,57.0,30.01,NW,304,0.0,6.0,59,0.00,,,0.00,weatherlink.com 1.10,2013-09-23 17:42:00,
2013-09-23 13:57:00,71.9,57.0,30.01,SSE,160,1.0,6.0,59,0.00,,,0.00,weatherlink.com 1.10,2013-09-23 17:57:00,
2013-09-23 14:12:00,72.4,58.0,30.01,North,9,1.0,4.0,61,0.00,,,0.00,weatherlink.com 1.10,2013-09-23 18:12:00,
2013-09-23 14:27:00,71.1,56.0,30.01,WNW,298,1.0,6.0,59,0.00,,,0.00,weatherlink.com 1.10,2013-09-23 18:27:00,
2013-09-23 14:42:00,70.8,57.0,30.01,WNW,297,0.0,7.0,61,0.00,,,0.00,weatherlink.com 1.10,2013-09-23 18:42:00,
2013-09-23 14:57:00,71.5,57.0,30.01,NE,56,3.0,7.0,61,0.00,,,0.00,weatherlink.com 1.10,2013-09-23 18:57:00,
2013-09-23 15:12:00,71.4,57.0,30.01,NW,310,1.0,5.0,61,0.00,,,0.00,weatherlink.com 1.10,2013-09-23 19:12:00,
2013-09-23 15:27:00,71.1,57.0,30.00,NNE,25,1.0,4.0,61,0.00,,,0.00,weatherlink.com 1.10,2013-09-23 19:27:00,
2013-09-23 15:42:00,70.9,57.0,30.00,North,5,0.0,4.0,62,0.00,,,0.00,weatherlink.com 1.10,2013-09-23 19:42:00,
2013-09-23 15:57:00,71.6,58.0,30.00,ENE,71,2.0,6.0,63,0.00,,,0.00,weatherlink.com 1.10,2013-09-23 19:57:00,
2013-09-23 16:12:00,70.3,57.0,30.00,NE,38,1.0,3.0,63,0.00,,,0.00,weatherlink.com 1.10,2013-09-23 20:12:00,
2013-09-23 16:27:00,70.9,58.0,30.00,North,5,0.0,3.0,63,0.00,,,0.00,weatherlink.com 1.10,2013-09-23 20:27:00,
2013-09-23 16:42:00,71.0,57.0,30.01,West,278,0.0,6.0,61,0.00,,,0.00,weatherlink.com 1.10,2013-09-23 20:42:00,
2013-09-23 16:57:00,69.0,57.0,30.01,WNW,300,0.0,2.0,66,0.00,,,0.00,weatherlink.com 1.10,2013-09-23 20:57:00,
2013-09-23 17:12:00,68.0,57.0,30.01,NW,311,0.0,1.0,69,0.00,,,0.00,weatherlink.com 1.10,2013-09-23 21:12:00,
2013-09-23 17:27:00,68.2,58.0,30.01,WNW,302,0.0,2.0,69,0.00,,,0.00,weatherlink.com 1.10,2013-09-23 21:27:00,
2013-09-23 17:42:00,68.3,57.0,30.02,NW,309,0.0,2.0,68,0.00,,,0.00,weatherlink.com 1.10,2013-09-23 21:42:00,
2013-09-23 17:57:00,67.6,57.0,30.02,North,356,0.0,0.0,70,0.00,,,0.00,weatherlink.com 1.10,2013-09-23 21:57:00,
2013-09-23 18:12:00,67.8,58.0,30.02,WNW,293,0.0,1.0,70,0.00,,,0.00,weatherlink.com 1.10,2013-09-23 22:12:00,
2013-09-23 18:27:00,67.5,58.0,30.02,WNW,295,0.0,0.0,71,0.00,,,0.00,weatherlink.com 1.10,2013-09-23 22:27:00,
2013-09-23 18:42:00,67.2,57.0,30.03,SW,230,0.0,1.0,70,0.00,,,0.00,weatherlink.com 1.10,2013-09-23 22:42:00,
2013-09-23 18:57:00,66.4,58.0,30.03,SW,231,0.0,0.0,73,0.00,,,0.00,weatherlink.com 1.10,2013-09-23 22:57:00,
2013-09-23 19:12:00,65.1,57.0,30.03,SW,231,0.0,0.0,76,0.00,,,0.00,weatherlink.com 1.10,2013-09-23 23:12:00,
2013-09-23 19:27:00,64.1,57.0,30.03,NW,314,0.0,1.0,78,0.00,,,0.00,weatherlink.com 1.10,2013-09-23 23:27:00,
2013-09-23 19:42:00,63.7,57.0,30.03,NW,312,0.0,0.0,79,0.00,,,0.00,weatherlink.com 1.10,2013-09-23 23:42:00,
2013-09-23 19:57:00,63.0,57.0,30.03,WNW,302,0.0,0.0,80,0.00,,,0.00,weatherlink.com 1.10,2013-09-23 23:57:00,
2013-09-23 20:12:00,62.5,57.0,30.04,WNW,302,0.0,0.0,82,0.00,,,0.00,weatherlink.com 1.10,2013-09-24 00:12:00,
2013-09-23 20:27:00,62.1,57.0,30.05,WNW,302,0.0,0.0,83,0.00,,,0.00,weatherlink.com 1.10,2013-09-24 00:27:00,
2013-09-23 20:42:00,62.0,57.0,30.05,WNW,302,0.0,1.0,84,0.00,,,0.00,weatherlink.com 1.10,2013-09-24 00:42:00,
2013-09-23 20:58:00,61.6,57.0,30.05,WNW,302,0.0,0.0,85,0.00,,,0.00,weatherlink.com 1.10,2013-09-24 00:58:00,
2013-09-23 21:13:00,61.2,57.0,30.06,WNW,302,0.0,1.0,86,0.00,,,0.00,weatherlink.com 1.10,2013-09-24 01:13:00,
2013-09-23 21:28:00,61.0,57.0,30.06,WNW,302,0.0,0.0,86,0.00,,,0.00,weatherlink.com 1.10,2013-09-24 01:28:00,
2013-09-23 21:43:00,61.0,57.0,30.06,WNW,302,0.0,0.0,87,0.00,,,0.00,weatherlink.com 1.10,2013-09-24 01:43:00,
2013-09-23 21:58:00,60.8,57.0,30.06,NNW,343,0.0,0.0,86,0.00,,,0.00,weatherlink.com 1.10,2013-09-24 01:58:00,
2013-09-23 22:13:00,60.7,57.0,30.07,NNW,342,0.0,1.0,86,0.00,,,0.00,weatherlink.com 1.10,2013-09-24 02:13:00,
2013-09-23 22:28:00,60.6,56.0,30.07,NNW,333,0.0,1.0,86,0.00,,,0.00,weatherlink.com 1.10,2013-09-24 02:28:00,
2013-09-23 22:43:00,60.3,57.0,30.08,NW,316,0.0,1.0,87,0.00,,,0.00,weatherlink.com 1.10,2013-09-24 02:43:00,
2013-09-23 22:58:00,60.2,56.0,30.08,NW,322,0.0,1.0,87,0.00,,,0.00,weatherlink.com 1.10,2013-09-24 02:58:00,
2013-09-23 23:13:00,60.3,57.0,30.08,NNW,330,0.0,1.0,87,0.00,,,0.00,weatherlink.com 1.10,2013-09-24 03:13:00,
2013-09-23 23:28:00,60.4,56.0,30.08,NW,326,0.0,1.0,86,0.00,,,0.00,weatherlink.com 1.10,2013-09-24 03:28:00,
2013-09-23 23:43:00,60.7,57.0,30.08,NW,304,0.0,1.0,86,0.00,,,0.00,weatherlink.com 1.10,2013-09-24 03:43:00,
2013-09-23 23:58:00,60.8,57.0,30.08,NW,304,0.0,1.0,86,0.00,,,0.00,weatherlink.com 1.10,2013-09-24 03:58:00,